Time;durP1;ratioP1;P1;durP2;ratioP2;P2;SDS_P1;SDS_P2;PMS_P1;PMS_P2;Temp;Humidity;BMP_temperature;BMP_pressure;BME280_temperature;BME280_humidity;BME280_pressure;Samples;Min_cycle;Max_cycle;Signal;HPM_P1;HPM_P2
2022/01/20 00:00:14;;;;;;;1.63;1.38;;;;;;;;;;5036116;28;20029;-72
2022/01/20 00:02:41;;;;;;;1.80;1.10;;;;;;;;;;5034975;28;20021;-72
2022/01/20 00:08:35;;;;;;;1.50;1.20;;;;;;;;;;5045214;28;20520;-72
2022/01/20 00:27:17;;;;;;;1.25;1.00;;;;;;;;;;5055331;28;20106;-72
2022/01/20 00:35:21;;;;;;;1.35;1.00;;;;;;;;;;5055567;28;20029;-72
2022/01/20 00:37:48;;;;;;;1.45;1.17;;;;;;;;;;5055150;28;20032;-72
2022/01/20 00:40:15;;;;;;;1.17;0.90;;;;;;;;;;5054195;28;20098;-72
2022/01/20 00:42:41;;;;;;;1.13;1.00;;;;;;;;;;5038300;28;20052;-72
2022/01/20 00:45:08;;;;;;;0.98;0.88;;;;;;;;;;5035081;28;20499;-72
2022/01/20 00:47:34;;;;;;;0.80;0.80;;;;;;;;;;5035086;28;20029;-72
2022/01/20 00:50:00;;;;;;;1.13;0.95;;;;;;;;;;5035246;28;20021;-72
2022/01/20 00:52:27;;;;;;;1.42;1.10;;;;;;;;;;5040492;28;20017;-72
2022/01/20 00:54:53;;;;;;;1.17;1.05;;;;;;;;;;5054967;28;20021;-72
2022/01/20 00:57:19;;;;;;;1.13;1.02;;;;;;;;;;5054741;28;20069;-72
2022/01/20 00:59:45;;;;;;;1.48;1.13;;;;;;;;;;5054670;28;20025;-72
2022/01/20 01:02:12;;;;;;;1.17;1.08;;;;;;;;;;5054725;28;20492;-72
2022/01/20 01:04:41;;;;;;;1.10;0.90;;;;;;;;;;5053596;28;20029;-72
2022/01/20 01:09:52;;;;;;;1.10;1.00;;;;;;;;;;5054965;28;20064;-72
2022/01/20 01:12:29;;;;;;;1.10;0.77;;;;;;;;;;5052780;28;20048;-72
2022/01/20 01:14:55;;;;;;;0.70;0.70;;;;;;;;;;5036847;28;20485;-72
2022/01/20 01:20:14;;;;;;;1.00;0.80;;;;;;;;;;5034683;28;20072;-72
2022/01/20 01:22:40;;;;;;;1.05;0.85;;;;;;;;;;5032893;28;20027;-72
2022/01/20 01:25:06;;;;;;;0.90;0.75;;;;;;;;;;5034061;28;20029;-72
2022/01/20 01:27:37;;;;;;;0.82;0.75;;;;;;;;;;5034111;28;20035;-72
2022/01/20 01:30:09;;;;;;;0.70;0.70;;;;;;;;;;5034003;28;20036;-72
2022/01/20 01:35:05;;;;;;;1.70;1.10;;;;;;;;;;5034466;28;20034;-72
2022/01/20 01:40:00;;;;;;;0.90;0.73;;;;;;;;;;5034311;28;20116;-72
2022/01/20 01:42:42;;;;;;;0.98;0.70;;;;;;;;;;5047736;28;20033;-72
2022/01/20 01:45:11;;;;;;;0.88;0.77;;;;;;;;;;5053824;28;20112;-72
2022/01/20 01:47:37;;;;;;;0.90;0.80;;;;;;;;;;5053504;28;20032;-72
2022/01/20 01:50:04;;;;;;;0.85;0.80;;;;;;;;;;5053854;28;20073;-72
2022/01/20 01:52:30;;;;;;;0.95;0.80;;;;;;;;;;5046980;28;20013;-72
2022/01/20 01:54:56;;;;;;;1.00;0.90;;;;;;;;;;5033379;28;20029;-72
2022/01/20 01:57:24;;;;;;;1.27;0.90;;;;;;;;;;5033777;28;20622;-72
2022/01/20 01:59:50;;;;;;;0.80;0.70;;;;;;;;;;5033375;28;20087;-72
2022/01/20 02:02:17;;;;;;;1.25;0.90;;;;;;;;;;5033238;28;20029;-72
2022/01/20 02:04:43;;;;;;;0.65;0.60;;;;;;;;;;5032214;28;20037;-72
2022/01/20 02:07:37;;;;;;;1.42;1.02;;;;;;;;;;5040441;28;20104;-72
2022/01/20 02:20:42;;;;;;;0.82;0.73;;;;;;;;;;5062084;28;20033;-72
2022/01/20 02:23:08;;;;;;;0.70;0.70;;;;;;;;;;5041449;28;20024;-72
2022/01/20 02:25:35;;;;;;;0.70;0.70;;;;;;;;;;5032874;28;20025;-72
2022/01/20 02:28:06;;;;;;;0.60;0.50;;;;;;;;;;5032963;28;20025;-72
2022/01/20 02:30:32;;;;;;;0.70;0.70;;;;;;;;;;5031550;28;20029;-72
2022/01/20 02:33:00;;;;;;;0.90;0.77;;;;;;;;;;5033195;28;20079;-72
2022/01/20 02:35:27;;;;;;;0.75;0.70;;;;;;;;;;5032812;28;20096;-72
2022/01/20 02:38:07;;;;;;;0.77;0.70;;;;;;;;;;5033088;28;20034;-72
2022/01/20 02:45:44;;;;;;;1.00;0.80;;;;;;;;;;5032651;28;20083;-72
2022/01/20 02:48:10;;;;;;;0.93;0.75;;;;;;;;;;5032664;28;20029;-72
2022/01/20 02:50:36;;;;;;;0.60;0.60;;;;;;;;;;5031292;28;20117;-72
2022/01/20 02:53:02;;;;;;;0.60;0.60;;;;;;;;;;5043390;28;20024;-72
2022/01/20 02:55:28;;;;;;;0.70;0.70;;;;;;;;;;5052815;28;20025;-72
2022/01/20 02:57:55;;;;;;;0.52;0.52;;;;;;;;;;5052669;28;20045;-72
2022/01/20 03:00:21;;;;;;;0.98;0.82;;;;;;;;;;5052375;28;20032;-72
2022/01/20 03:02:48;;;;;;;0.90;0.70;;;;;;;;;;5051929;28;20036;-72
2022/01/20 03:05:14;;;;;;;0.95;0.70;;;;;;;;;;5052526;28;20036;-72
2022/01/20 03:07:40;;;;;;;1.27;0.70;;;;;;;;;;5052184;28;20155;-72
2022/01/20 03:10:07;;;;;;;0.77;0.70;;;;;;;;;;5052379;28;20025;-72
2022/01/20 03:12:33;;;;;;;0.80;0.80;;;;;;;;;;5052379;28;20036;-72
2022/01/20 03:15:00;;;;;;;0.93;0.70;;;;;;;;;;5034442;28;20026;-72
2022/01/20 03:17:26;;;;;;;0.80;0.68;;;;;;;;;;5032438;28;20029;-72
2022/01/20 03:19:52;;;;;;;0.70;0.70;;;;;;;;;;5032521;28;20060;-72
2022/01/20 03:22:18;;;;;;;0.80;0.65;;;;;;;;;;5032117;28;20021;-72
2022/01/20 03:24:44;;;;;;;0.90;0.60;;;;;;;;;;5032246;28;20064;-72
2022/01/20 03:27:10;;;;;;;0.70;0.40;;;;;;;;;;5032433;28;20128;-72
2022/01/20 03:29:36;;;;;;;0.60;0.50;;;;;;;;;;5032320;28;20025;-72
2022/01/20 03:32:03;;;;;;;0.63;0.60;;;;;;;;;;5031824;28;20017;-72
2022/01/20 03:34:29;;;;;;;1.38;0.70;;;;;;;;;;5032385;28;20028;-72
2022/01/20 03:36:55;;;;;;;0.75;0.70;;;;;;;;;;5030808;28;20481;-72
2022/01/20 03:39:22;;;;;;;1.08;0.70;;;;;;;;;;5032303;28;20025;-72
2022/01/20 03:41:48;;;;;;;0.88;0.70;;;;;;;;;;5039500;28;20025;-72
2022/01/20 03:44:16;;;;;;;0.82;0.70;;;;;;;;;;5052056;28;20029;-72
2022/01/20 03:46:42;;;;;;;0.55;0.55;;;;;;;;;;5051997;28;20021;-72
2022/01/20 03:49:13;;;;;;;0.70;0.68;;;;;;;;;;5052101;28;20029;-72
2022/01/20 03:51:39;;;;;;;0.68;0.68;;;;;;;;;;5051625;28;20021;-72
2022/01/20 03:54:05;;;;;;;0.82;0.50;;;;;;;;;;5032478;28;20420;-72
2022/01/20 03:56:31;;;;;;;0.55;0.55;;;;;;;;;;5032039;28;20378;-72
2022/01/20 03:58:58;;;;;;;0.70;0.63;;;;;;;;;;5031931;28;20505;-73
2022/01/20 04:01:24;;;;;;;0.70;0.50;;;;;;;;;;5031782;28;20059;-72
2022/01/20 04:03:53;;;;;;;0.80;0.60;;;;;;;;;;5031727;28;20568;-72
2022/01/20 04:06:19;;;;;;;0.65;0.60;;;;;;;;;;5032218;28;20047;-72
2022/01/20 04:08:47;;;;;;;0.60;0.60;;;;;;;;;;5032100;28;20431;-72
2022/01/20 04:11:14;;;;;;;0.60;0.60;;;;;;;;;;5032582;28;20025;-72
2022/01/20 04:13:40;;;;;;;0.60;0.60;;;;;;;;;;5037667;28;20021;-72
2022/01/20 04:16:13;;;;;;;0.70;0.60;;;;;;;;;;5055732;28;20102;-72
2022/01/20 04:18:41;;;;;;;1.05;0.77;;;;;;;;;;5055465;28;20021;-72
2022/01/20 04:21:07;;;;;;;0.85;0.65;;;;;;;;;;5055248;28;20059;-72
2022/01/20 04:23:33;;;;;;;0.70;0.60;;;;;;;;;;5054925;28;20033;-72
2022/01/20 04:25:59;;;;;;;0.40;0.40;;;;;;;;;;5055373;28;20048;-73
2022/01/20 04:28:25;;;;;;;0.75;0.60;;;;;;;;;;5055243;28;20029;-72
2022/01/20 04:30:51;;;;;;;0.50;0.50;;;;;;;;;;5053909;28;20028;-72
2022/01/20 04:33:17;;;;;;;0.60;0.60;;;;;;;;;;5055239;28;20025;-72
2022/01/20 04:35:43;;;;;;;0.45;0.45;;;;;;;;;;5055210;28;20107;-72
2022/01/20 04:38:09;;;;;;;0.70;0.55;;;;;;;;;;5055001;28;20396;-72
2022/01/20 04:40:41;;;;;;;0.70;0.63;;;;;;;;;;5055064;28;20494;-72
2022/01/20 04:43:07;;;;;;;0.80;0.57;;;;;;;;;;5035134;28;20021;-72
2022/01/20 04:45:40;;;;;;;0.60;0.40;;;;;;;;;;5035200;28;20041;-72
2022/01/20 04:58:55;;;;;;;0.70;0.70;;;;;;;;;;5054591;28;20063;-72
2022/01/20 05:01:22;;;;;;;0.40;0.40;;;;;;;;;;5054727;28;20025;-72
2022/01/20 05:03:48;;;;;;;0.50;0.50;;;;;;;;;;5054311;28;20036;-72
2022/01/20 05:06:14;;;;;;;0.60;0.60;;;;;;;;;;5054615;28;20504;-72
2022/01/20 05:08:40;;;;;;;0.65;0.55;;;;;;;;;;5054739;28;20075;-72
2022/01/20 05:11:06;;;;;;;0.70;0.52;;;;;;;;;;5054741;28;20549;-72
2022/01/20 05:13:35;;;;;;;0.50;0.50;;;;;;;;;;5049125;28;20477;-72
2022/01/20 05:16:01;;;;;;;1.27;0.52;;;;;;;;;;5034880;28;20042;-72
2022/01/20 05:18:27;;;;;;;0.57;0.50;;;;;;;;;;5034505;28;20116;-72
2022/01/20 05:20:54;;;;;;;0.70;0.60;;;;;;;;;;5034500;28;20037;-72
2022/01/20 05:23:20;;;;;;;0.40;0.40;;;;;;;;;;5034745;28;20553;-72
2022/01/20 05:25:46;;;;;;;0.70;0.70;;;;;;;;;;5032376;28;20026;-72
2022/01/20 05:28:12;;;;;;;0.45;0.40;;;;;;;;;;5034887;28;20443;-72
2022/01/20 05:30:41;;;;;;;0.52;0.50;;;;;;;;;;5034233;28;20049;-73
2022/01/20 05:33:08;;;;;;;0.75;0.60;;;;;;;;;;5034387;28;20460;-72
2022/01/20 05:35:34;;;;;;;0.68;0.68;;;;;;;;;;5034280;28;20109;-72
2022/01/20 05:38:00;;;;;;;0.70;0.70;;;;;;;;;;5034051;28;20561;-72
2022/01/20 05:40:27;;;;;;;0.85;0.60;;;;;;;;;;5034352;28;20071;-72
2022/01/20 05:42:53;;;;;;;0.70;0.47;;;;;;;;;;5052459;28;20029;-72
2022/01/20 05:45:20;;;;;;;0.47;0.47;;;;;;;;;;5054237;28;20021;-72
2022/01/20 05:47:48;;;;;;;0.73;0.52;;;;;;;;;;5053801;28;20033;-72
2022/01/20 05:50:15;;;;;;;2.00;0.60;;;;;;;;;;5053497;28;20021;-72
2022/01/20 05:52:42;;;;;;;0.50;0.50;;;;;;;;;;5045693;28;20053;-72
2022/01/20 05:55:26;;;;;;;0.50;0.43;;;;;;;;;;5033453;28;20013;-72
2022/01/20 05:57:52;;;;;;;0.40;0.40;;;;;;;;;;5033561;28;20057;-72
2022/01/20 06:00:24;;;;;;;0.85;0.55;;;;;;;;;;5033763;28;20026;-72
2022/01/20 06:05:35;;;;;;;0.43;0.43;;;;;;;;;;5033857;28;20037;-72
2022/01/20 06:08:01;;;;;;;1.05;0.40;;;;;;;;;;5033303;28;20029;-72
2022/01/20 06:10:27;;;;;;;0.60;0.52;;;;;;;;;;5033818;28;20373;-72
2022/01/20 06:12:53;;;;;;;0.50;0.47;;;;;;;;;;5033601;28;20035;-72
2022/01/20 06:15:20;;;;;;;0.73;0.43;;;;;;;;;;5052466;28;20396;-72
2022/01/20 06:17:46;;;;;;;0.70;0.40;;;;;;;;;;5053338;28;20381;-72
2022/01/20 06:20:12;;;;;;;0.50;0.50;;;;;;;;;;5053048;28;20076;-72
2022/01/20 06:22:39;;;;;;;0.47;0.30;;;;;;;;;;5053460;28;20420;-72
2022/01/20 06:25:06;;;;;;;0.50;0.50;;;;;;;;;;5052951;28;20032;-72
2022/01/20 06:27:32;;;;;;;0.73;0.40;;;;;;;;;;5052930;28;20106;-72
2022/01/20 06:29:58;;;;;;;1.20;0.47;;;;;;;;;;5053014;28;20056;-72
2022/01/20 06:32:24;;;;;;;0.30;0.30;;;;;;;;;;5052700;28;20064;-73
2022/01/20 06:34:50;;;;;;;0.73;0.50;;;;;;;;;;5052929;28;20028;-72
2022/01/20 06:37:16;;;;;;;0.60;0.40;;;;;;;;;;5050737;28;20099;-72
2022/01/20 06:39:42;;;;;;;1.23;0.50;;;;;;;;;;5052769;28;20048;-72
2022/01/20 06:42:09;;;;;;;0.77;0.30;;;;;;;;;;5038552;28;20030;-72
2022/01/20 06:44:35;;;;;;;0.80;0.60;;;;;;;;;;5032724;28;20440;-72
2022/01/20 06:47:01;;;;;;;0.43;0.43;;;;;;;;;;5032984;28;20030;-72
2022/01/20 06:49:27;;;;;;;0.60;0.45;;;;;;;;;;5032640;28;20544;-72
2022/01/20 06:51:53;;;;;;;0.47;0.40;;;;;;;;;;5033532;28;20052;-72
2022/01/20 06:54:19;;;;;;;0.95;0.50;;;;;;;;;;5052570;28;20032;-72
2022/01/20 06:56:45;;;;;;;0.50;0.47;;;;;;;;;;5052679;28;20029;-72
2022/01/20 06:59:12;;;;;;;0.40;0.40;;;;;;;;;;5051042;28;20045;-73
2022/01/20 07:01:39;;;;;;;0.52;0.50;;;;;;;;;;5052041;28;20029;-70
2022/01/20 07:04:05;;;;;;;0.73;0.50;;;;;;;;;;5052749;28;20381;-70
2022/01/20 07:06:31;;;;;;;0.63;0.35;;;;;;;;;;5052584;28;20527;-70
2022/01/20 07:08:57;;;;;;;0.55;0.50;;;;;;;;;;5052346;28;20032;-70
2022/01/20 07:11:24;;;;;;;0.57;0.50;;;;;;;;;;5051760;28;20024;-70
2022/01/20 07:13:50;;;;;;;0.60;0.57;;;;;;;;;;5045542;28;20390;-70
2022/01/20 07:16:16;;;;;;;0.75;0.60;;;;;;;;;;5032393;28;20156;-70
2022/01/20 07:18:42;;;;;;;0.90;0.43;;;;;;;;;;5032340;28;20026;-70
2022/01/20 07:21:08;;;;;;;0.52;0.50;;;;;;;;;;5032460;28;20040;-70
2022/01/20 07:23:34;;;;;;;0.52;0.40;;;;;;;;;;5031751;28;20095;-70
2022/01/20 07:26:00;;;;;;;1.38;0.57;;;;;;;;;;5032203;28;20103;-70
2022/01/20 07:28:26;;;;;;;0.45;0.43;;;;;;;;;;5032178;28;20033;-70
2022/01/20 07:30:52;;;;;;;0.50;0.40;;;;;;;;;;5032066;28;20026;-70
2022/01/20 07:33:20;;;;;;;1.75;0.43;;;;;;;;;;5032564;28;20508;-70
2022/01/20 07:35:47;;;;;;;0.93;0.55;;;;;;;;;;5032080;28;20026;-70
2022/01/20 07:38:13;;;;;;;0.52;0.50;;;;;;;;;;5032026;28;20053;-70
2022/01/20 07:40:39;;;;;;;1.70;0.57;;;;;;;;;;5032080;28;20032;-70
2022/01/20 07:43:05;;;;;;;0.57;0.57;;;;;;;;;;5051931;28;20029;-70
2022/01/20 07:45:31;;;;;;;0.52;0.50;;;;;;;;;;5052393;28;20396;-70
2022/01/20 07:47:57;;;;;;;0.77;0.50;;;;;;;;;;5051966;28;20050;-70
2022/01/20 07:50:23;;;;;;;0.50;0.40;;;;;;;;;;5054072;28;20496;-70
2022/01/20 07:52:50;;;;;;;0.40;0.40;;;;;;;;;;5046749;28;20025;-70
2022/01/20 07:55:16;;;;;;;1.17;0.50;;;;;;;;;;5034336;28;20049;-70
2022/01/20 07:57:42;;;;;;;1.45;0.60;;;;;;;;;;5035707;28;20525;-70
2022/01/20 08:00:09;;;;;;;0.88;0.50;;;;;;;;;;5032302;28;20040;-71
2022/01/20 08:02:35;;;;;;;1.05;0.50;;;;;;;;;;5038528;28;20116;-71
2022/01/20 08:05:01;;;;;;;0.40;0.40;;;;;;;;;;5045601;28;20032;-70
2022/01/20 08:07:27;;;;;;;2.58;0.70;;;;;;;;;;5071411;28;20058;-72
2022/01/20 08:09:57;;;;;;;1.05;0.45;;;;;;;;;;5052545;28;20021;-72
2022/01/20 08:12:24;;;;;;;0.70;0.63;;;;;;;;;;5048640;28;20029;-72
2022/01/20 08:14:50;;;;;;;1.00;0.73;;;;;;;;;;5041899;28;20120;-71
2022/01/20 08:17:16;;;;;;;1.42;0.50;;;;;;;;;;5040384;28;20104;-72
2022/01/20 08:19:44;;;;;;;1.75;0.52;;;;;;;;;;5050413;28;20476;-72
2022/01/20 08:22:10;;;;;;;1.65;0.50;;;;;;;;;;5049767;28;20521;-72
2022/01/20 08:24:36;;;;;;;3.10;0.60;;;;;;;;;;5044954;28;20080;-73
2022/01/20 08:27:02;;;;;;;2.38;0.60;;;;;;;;;;5047436;28;20044;-72
2022/01/20 08:29:28;;;;;;;2.33;0.75;;;;;;;;;;5044082;28;20075;-73
2022/01/20 08:31:55;;;;;;;1.42;0.60;;;;;;;;;;5036276;28;20022;-74
2022/01/20 08:34:21;;;;;;;1.65;0.50;;;;;;;;;;5036876;28;20131;-74
2022/01/20 08:36:47;;;;;;;1.13;0.65;;;;;;;;;;5049087;28;20056;-75
2022/01/20 08:42:02;;;;;;;1.48;0.60;;;;;;;;;;5042440;28;20025;-74
2022/01/20 08:44:28;;;;;;;0.63;0.50;;;;;;;;;;5049567;28;20102;-74
2022/01/20 08:46:57;;;;;;;0.85;0.65;;;;;;;;;;5051346;28;20037;-73
2022/01/20 08:49:23;;;;;;;1.83;0.63;;;;;;;;;;5049713;28;20508;-73
2022/01/20 08:51:50;;;;;;;1.60;0.70;;;;;;;;;;5049189;28;20057;-74
2022/01/20 08:54:16;;;;;;;0.95;0.60;;;;;;;;;;5045129;28;20025;-74
2022/01/20 08:56:43;;;;;;;0.70;0.60;;;;;;;;;;5048869;28;20021;-72
2022/01/20 08:59:10;;;;;;;0.90;0.60;;;;;;;;;;5043409;28;20077;-75
2022/01/20 09:01:40;;;;;;;1.27;0.70;;;;;;;;;;5028522;28;20120;-73
2022/01/20 09:04:06;;;;;;;2.38;0.77;;;;;;;;;;5035868;28;20399;-74
2022/01/20 09:06:33;;;;;;;4.20;0.90;;;;;;;;;;5046166;28;20044;-75
2022/01/20 09:08:59;;;;;;;2.38;0.70;;;;;;;;;;5051314;28;20029;-74
2022/01/20 09:11:31;;;;;;;0.70;0.50;;;;;;;;;;5062209;28;20024;-74
2022/01/20 09:16:44;;;;;;;2.17;1.00;;;;;;;;;;5049397;28;20120;-73
2022/01/20 09:19:10;;;;;;;1.48;0.93;;;;;;;;;;5050921;28;20025;-75
2022/01/20 09:21:38;;;;;;;2.65;0.77;;;;;;;;;;5036680;28;20040;-74
2022/01/20 09:24:05;;;;;;;3.88;0.90;;;;;;;;;;5030866;28;20067;-75
2022/01/20 09:26:31;;;;;;;2.58;0.90;;;;;;;;;;5042223;28;20039;-72
2022/01/20 09:28:57;;;;;;;1.40;0.82;;;;;;;;;;5049394;28;20530;-72
2022/01/20 09:31:25;;;;;;;1.55;0.52;;;;;;;;;;5040361;28;20060;-73
2022/01/20 09:33:52;;;;;;;1.73;0.70;;;;;;;;;;5046177;28;20424;-73
2022/01/20 09:36:19;;;;;;;1.08;0.77;;;;;;;;;;5044870;28;20480;-73
2022/01/20 09:38:45;;;;;;;1.00;0.70;;;;;;;;;;5049959;28;20040;-75
2022/01/20 09:41:12;;;;;;;1.88;0.73;;;;;;;;;;5049639;28;20041;-74
2022/01/20 09:43:38;;;;;;;1.25;0.70;;;;;;;;;;5052250;28;20021;-74
2022/01/20 09:46:04;;;;;;;1.35;0.70;;;;;;;;;;5051002;28;20068;-75
2022/01/20 09:48:32;;;;;;;1.70;0.70;;;;;;;;;;5049727;28;20495;-74
2022/01/20 09:51:03;;;;;;;1.88;0.70;;;;;;;;;;5050553;28;20049;-73
2022/01/20 09:53:29;;;;;;;2.20;0.70;;;;;;;;;;5040839;28;20152;-73
2022/01/20 09:55:56;;;;;;;1.50;0.70;;;;;;;;;;5047070;28;20472;-74
2022/01/20 09:58:23;;;;;;;1.73;0.90;;;;;;;;;;5043219;28;20136;-74
2022/01/20 10:00:51;;;;;;;2.45;0.80;;;;;;;;;;5050907;28;20166;-73
2022/01/20 10:03:19;;;;;;;0.93;0.80;;;;;;;;;;5049056;28;20036;-73
2022/01/20 10:05:50;;;;;;;1.95;0.73;;;;;;;;;;5033207;28;20476;-72
2022/01/20 10:08:26;;;;;;;1.85;0.90;;;;;;;;;;5037979;28;20421;-73
2022/01/20 10:10:58;;;;;;;2.58;1.20;;;;;;;;;;5037167;28;20056;-73
2022/01/20 10:13:29;;;;;;;2.80;1.27;;;;;;;;;;5051733;28;20020;-71
2022/01/20 10:15:58;;;;;;;6.65;1.60;;;;;;;;;;5040584;28;20028;-72
2022/01/20 10:18:25;;;;;;;1.35;0.88;;;;;;;;;;5046494;28;20098;-73
2022/01/20 10:20:55;;;;;;;3.08;1.13;;;;;;;;;;5039686;28;20117;-72
2022/01/20 10:23:35;;;;;;;3.58;1.10;;;;;;;;;;5043798;28;20036;-73
2022/01/20 10:26:05;;;;;;;3.00;1.20;;;;;;;;;;5037579;28;20056;-72
2022/01/20 10:28:31;;;;;;;3.17;1.00;;;;;;;;;;5032419;28;20160;-73
2022/01/20 10:30:57;;;;;;;2.40;0.95;;;;;;;;;;5036616;28;20061;-73
2022/01/20 10:33:23;;;;;;;1.58;1.00;;;;;;;;;;5046049;28;20046;-73
2022/01/20 10:35:49;;;;;;;3.13;0.85;;;;;;;;;;5041309;28;20480;-73
2022/01/20 10:38:17;;;;;;;1.17;0.65;;;;;;;;;;5041764;28;20021;-72
2022/01/20 10:40:47;;;;;;;6.18;1.30;;;;;;;;;;5038230;28;20401;-72
2022/01/20 10:43:24;;;;;;;5.75;1.90;;;;;;;;;;5033857;28;20179;-71
2022/01/20 10:46:00;;;;;;;5.72;1.40;;;;;;;;;;5031530;28;20432;-71
2022/01/20 10:48:27;;;;;;;2.88;1.05;;;;;;;;;;5041611;28;20025;-73
2022/01/20 10:50:53;;;;;;;1.83;1.15;;;;;;;;;;5033226;28;20028;-73
2022/01/20 10:53:22;;;;;;;6.20;1.63;;;;;;;;;;5036666;28;20026;-73
2022/01/20 10:55:48;;;;;;;2.83;1.15;;;;;;;;;;5038342;28;20025;-73
2022/01/20 10:58:22;;;;;;;4.13;1.23;;;;;;;;;;5042180;28;20049;-73
2022/01/20 11:00:52;;;;;;;5.10;1.10;;;;;;;;;;5029200;28;20504;-74
2022/01/20 11:03:19;;;;;;;5.95;1.05;;;;;;;;;;5036878;28;20107;-74
2022/01/20 11:05:49;;;;;;;2.90;1.10;;;;;;;;;;5035798;28;20030;-74
2022/01/20 11:08:15;;;;;;;9.18;1.58;;;;;;;;;;5041479;28;20029;-75
2022/01/20 11:10:42;;;;;;;3.72;1.17;;;;;;;;;;5038213;28;20392;-73
2022/01/20 11:13:10;;;;;;;3.75;1.33;;;;;;;;;;5039613;28;20055;-72
2022/01/20 11:15:36;;;;;;;1.83;0.90;;;;;;;;;;5043482;28;20025;-72
2022/01/20 11:18:03;;;;;;;2.55;1.10;;;;;;;;;;5041582;28;20575;-73
2022/01/20 11:20:32;;;;;;;5.57;1.00;;;;;;;;;;5052320;28;20025;-72
2022/01/20 11:23:04;;;;;;;4.38;1.15;;;;;;;;;;5043079;28;20037;-72
2022/01/20 11:25:34;;;;;;;3.47;0.80;;;;;;;;;;5044447;28;20029;-72
2022/01/20 11:28:07;;;;;;;3.78;1.08;;;;;;;;;;5038102;28;20030;-71
2022/01/20 11:30:35;;;;;;;1.02;0.60;;;;;;;;;;5040177;28;20025;-71
2022/01/20 11:33:09;;;;;;;4.82;0.93;;;;;;;;;;5035256;28;20112;-72
2022/01/20 11:35:35;;;;;;;;;;;;;;;;;;5044318;28;20033;-73
2022/01/20 11:38:01;;;;;;;8.52;1.13;;;;;;;;;;5040471;28;20067;-73
2022/01/20 11:40:27;;;;;;;4.22;0.68;;;;;;;;;;5039549;28;20036;-74
2022/01/20 11:42:57;;;;;;;3.30;1.05;;;;;;;;;;5041671;28;20055;-73
2022/01/20 11:45:32;;;;;;;1.90;1.20;;;;;;;;;;5032784;28;20021;-74
2022/01/20 11:47:59;;;;;;;3.55;0.85;;;;;;;;;;5038892;28;20033;-76
2022/01/20 11:50:25;;;;;;;4.20;1.15;;;;;;;;;;5042808;28;20131;-74
2022/01/20 11:52:51;;;;;;;1.25;0.90;;;;;;;;;;5040691;28;20110;-75
2022/01/20 11:55:19;;;;;;;3.17;0.98;;;;;;;;;;5046171;28;20056;-73
2022/01/20 11:57:46;;;;;;;3.85;1.13;;;;;;;;;;5045434;28;20036;-73
2022/01/20 12:00:19;;;;;;;5.25;1.00;;;;;;;;;;5045639;28;20029;-72
2022/01/20 12:02:45;;;;;;;4.47;0.90;;;;;;;;;;5039769;28;20124;-74
2022/01/20 12:05:20;;;;;;;4.60;0.75;;;;;;;;;;5039555;28;20057;-74
2022/01/20 12:07:47;;;;;;;3.78;0.73;;;;;;;;;;5046935;28;20033;-74
2022/01/20 12:10:31;;;;;;;1.42;0.90;;;;;;;;;;5038005;28;20096;-73
2022/01/20 12:13:07;;;;;;;2.50;0.82;;;;;;;;;;5040258;28;20033;-74
2022/01/20 12:15:33;;;;;;;2.97;0.90;;;;;;;;;;5035519;28;20040;-74
2022/01/20 12:17:59;;;;;;;1.20;0.60;;;;;;;;;;5043273;28;20033;-74
2022/01/20 12:20:26;;;;;;;2.45;0.63;;;;;;;;;;5040330;28;20159;-74
2022/01/20 12:22:53;;;;;;;1.60;0.80;;;;;;;;;;5045781;28;20029;-74
2022/01/20 12:25:21;;;;;;;1.20;0.70;;;;;;;;;;5051843;28;20033;-74
2022/01/20 12:27:47;;;;;;;4.70;0.93;;;;;;;;;;5045639;28;20052;-74
2022/01/20 12:30:17;;;;;;;2.58;0.73;;;;;;;;;;5044698;28;20511;-73
2022/01/20 12:32:44;;;;;;;4.07;0.90;;;;;;;;;;5041812;28;20048;-74
2022/01/20 12:35:10;;;;;;;2.95;1.00;;;;;;;;;;5041674;28;20033;-72
2022/01/20 12:37:37;;;;;;;2.42;0.80;;;;;;;;;;5037079;28;20087;-74
2022/01/20 12:40:05;;;;;;;7.28;1.02;;;;;;;;;;5047117;28;20044;-73
2022/01/20 12:42:38;;;;;;;2.80;0.90;;;;;;;;;;5044975;28;20035;-73
2022/01/20 12:45:55;;;;;;;;;;;;;;;;;;5048043;28;20698;-74
2022/01/20 12:47:50;;;;;;;2.03;0.63;;;;;;;;;;5037709;28;19913;-74
2022/01/20 12:50:17;;;;;;;6.07;0.77;;;;;;;;;;5036427;28;20373;-74
2022/01/20 12:52:47;;;;;;;4.38;0.70;;;;;;;;;;5043090;28;20084;-74
2022/01/20 12:55:13;;;;;;;1.50;1.10;;;;;;;;;;5045546;28;20033;-73
2022/01/20 12:57:41;;;;;;;3.28;0.77;;;;;;;;;;5046483;28;20087;-73
2022/01/20 13:00:08;;;;;;;6.05;1.08;;;;;;;;;;5049526;28;20024;-74
2022/01/20 13:02:35;;;;;;;4.43;0.90;;;;;;;;;;5049041;28;20047;-72
2022/01/20 13:05:02;;;;;;;2.42;0.68;;;;;;;;;;5047141;28;20116;-72
2022/01/20 13:07:29;;;;;;;4.45;0.80;;;;;;;;;;5046153;28;20025;-71
2022/01/20 13:10:05;;;;;;;3.03;0.70;;;;;;;;;;5044878;28;20088;-72
2022/01/20 13:12:40;;;;;;;2.67;0.75;;;;;;;;;;5036569;28;20017;-72
2022/01/20 13:15:18;;;;;;;2.65;0.63;;;;;;;;;;5039687;28;20029;-72
2022/01/20 13:17:45;;;;;;;2.80;0.75;;;;;;;;;;5035182;28;20057;-72
2022/01/20 13:20:22;;;;;;;6.55;0.80;;;;;;;;;;5037652;28;20032;-71
2022/01/20 13:22:57;;;;;;;1.83;0.90;;;;;;;;;;5042945;28;20064;-72
2022/01/20 13:25:24;;;;;;;1.13;0.57;;;;;;;;;;5039241;28;20024;-72
2022/01/20 13:27:51;;;;;;;2.60;0.90;;;;;;;;;;5055174;28;20039;-73
2022/01/20 13:30:36;;;;;;;1.45;0.70;;;;;;;;;;5039383;28;20449;-72
2022/01/20 13:33:25;;;;;;;1.00;0.50;;;;;;;;;;5041184;28;20026;-72
2022/01/20 13:36:01;;;;;;;1.45;0.60;;;;;;;;;;5043710;28;20029;-72
2022/01/20 13:38:48;;;;;;;1.90;0.80;;;;;;;;;;5046736;28;20115;-73
2022/01/20 13:41:18;;;;;;;1.58;0.57;;;;;;;;;;5042662;28;20032;-73
2022/01/20 13:46:41;;;;;;;1.60;0.63;;;;;;;;;;5037684;28;20083;-72
2022/01/20 13:49:27;;;;;;;3.92;0.80;;;;;;;;;;5041276;28;20131;-72
2022/01/20 13:52:00;;;;;;;2.58;0.90;;;;;;;;;;5041007;28;20025;-73
2022/01/20 13:54:36;;;;;;;1.20;0.70;;;;;;;;;;5040973;28;20085;-73
2022/01/20 13:57:03;;;;;;;5.07;0.70;;;;;;;;;;5035832;28;20033;-73
2022/01/20 13:59:29;;;;;;;1.65;0.63;;;;;;;;;;5048851;28;20029;-76
2022/01/20 14:01:55;;;;;;;1.83;0.90;;;;;;;;;;5042884;28;20750;-73
2022/01/20 14:04:21;;;;;;;1.15;0.70;;;;;;;;;;5047897;28;20032;-74
2022/01/20 14:06:47;;;;;;;2.47;0.63;;;;;;;;;;5043935;28;20032;-74
2022/01/20 14:09:13;;;;;;;1.25;0.65;;;;;;;;;;5045239;28;20056;-74
2022/01/20 14:11:41;;;;;;;1.40;0.60;;;;;;;;;;5036981;28;20052;-75
2022/01/20 14:14:08;;;;;;;3.50;0.80;;;;;;;;;;5045101;28;20009;-72
2022/01/20 14:16:35;;;;;;;2.92;0.80;;;;;;;;;;5042801;28;20029;-73
2022/01/20 14:19:01;;;;;;;0.65;0.52;;;;;;;;;;5046174;28;20052;-73
2022/01/20 14:21:27;;;;;;;0.95;0.60;;;;;;;;;;5046162;28;20043;-73
2022/01/20 14:23:54;;;;;;;3.60;1.00;;;;;;;;;;5033659;28;20226;-73
2022/01/20 14:26:28;;;;;;;1.83;0.70;;;;;;;;;;5034386;28;20025;-73
2022/01/20 14:28:58;;;;;;;0.95;0.80;;;;;;;;;;5043164;28;20114;-73
2022/01/20 14:31:24;;;;;;;7.20;0.85;;;;;;;;;;5046130;28;20029;-72
2022/01/20 14:33:51;;;;;;;1.30;1.00;;;;;;;;;;5038056;28;20124;-74
2022/01/20 14:36:17;;;;;;;4.80;0.63;;;;;;;;;;5041162;28;20032;-71
2022/01/20 14:38:43;;;;;;;2.25;0.80;;;;;;;;;;5041277;28;20025;-71
2022/01/20 14:41:10;;;;;;;3.85;1.05;;;;;;;;;;5043747;28;20526;-68
2022/01/20 14:43:37;;;;;;;2.92;0.80;;;;;;;;;;5036170;28;20036;-72
2022/01/20 14:46:05;;;;;;;2.80;0.77;;;;;;;;;;5038533;28;20860;-72
2022/01/20 14:48:36;;;;;;;2.38;0.70;;;;;;;;;;5037979;28;20027;-72
2022/01/20 14:51:04;;;;;;;1.05;0.70;;;;;;;;;;5040582;28;20503;-71
2022/01/20 14:53:30;;;;;;;1.10;0.60;;;;;;;;;;5039949;28;20076;-72
2022/01/20 14:55:58;;;;;;;1.42;0.60;;;;;;;;;;5041710;28;20067;-71
2022/01/20 14:58:29;;;;;;;0.75;0.52;;;;;;;;;;5040384;28;20087;-69
2022/01/20 15:00:56;;;;;;;1.40;0.50;;;;;;;;;;5042967;28;20907;-70
2022/01/20 15:03:22;;;;;;;1.38;0.70;;;;;;;;;;5030205;28;20087;-70
2022/01/20 15:05:48;;;;;;;1.25;0.60;;;;;;;;;;5041699;28;20599;-71
2022/01/20 15:08:15;;;;;;;2.00;0.70;;;;;;;;;;5044548;28;20630;-71
2022/01/20 15:10:41;;;;;;;0.95;0.60;;;;;;;;;;5039373;28;20026;-71
2022/01/20 15:13:09;;;;;;;0.40;0.40;;;;;;;;;;5039520;28;20025;-72
2022/01/20 15:15:36;;;;;;;0.88;0.70;;;;;;;;;;5041030;28;20036;-72
2022/01/20 15:18:02;;;;;;;0.82;0.60;;;;;;;;;;5035084;28;20550;-70
2022/01/20 15:20:29;;;;;;;2.72;0.70;;;;;;;;;;5037934;28;20060;-71
2022/01/20 15:23:07;;;;;;;2.20;0.82;;;;;;;;;;5036622;28;20037;-70
2022/01/20 15:25:36;;;;;;;0.88;0.47;;;;;;;;;;5033874;28;20032;-70
2022/01/20 15:28:02;;;;;;;3.45;0.95;;;;;;;;;;5031913;28;20419;-69
2022/01/20 15:30:28;;;;;;;2.95;0.70;;;;;;;;;;5034920;28;20040;-71
2022/01/20 15:32:57;;;;;;;2.55;0.68;;;;;;;;;;5041604;28;20059;-71
2022/01/20 15:35:24;;;;;;;1.50;0.70;;;;;;;;;;5049435;28;20025;-71
2022/01/20 15:37:50;;;;;;;3.47;0.63;;;;;;;;;;5044541;28;20033;-72
2022/01/20 15:40:20;;;;;;;3.25;0.57;;;;;;;;;;5040955;28;20068;-71
2022/01/20 15:42:47;;;;;;;4.07;0.90;;;;;;;;;;5047612;28;20037;-73
2022/01/20 15:45:13;;;;;;;1.17;0.68;;;;;;;;;;5040704;28;20037;-71
2022/01/20 15:47:43;;;;;;;1.55;0.55;;;;;;;;;;5042157;28;20036;-71
2022/01/20 15:50:11;;;;;;;3.70;0.90;;;;;;;;;;5048011;28;20028;-71
2022/01/20 15:52:37;;;;;;;2.47;1.38;;;;;;;;;;5046329;28;20048;-71
2022/01/20 15:55:05;;;;;;;5.47;1.17;;;;;;;;;;5049649;28;20021;-71
2022/01/20 15:57:31;;;;;;;1.75;1.10;;;;;;;;;;5047552;28;20079;-70
2022/01/20 15:59:57;;;;;;;2.45;1.10;;;;;;;;;;5049636;28;20029;-70